Time;durP1;ratioP1;P1;durP2;ratioP2;P2;SDS_P1;SDS_P2;PMS_P1;PMS_P2;Temp;Humidity;BMP_temperature;BMP_pressure;BME280_temperature;BME280_humidity;BME280_pressure;Samples;Min_cycle;Max_cycle;Signal;HPM_P1;HPM_P2
2023/05/05 00:01:22;;;;;;;;;;;11.30;13.90;;;;;;5131916;27;19975;-70
2023/05/05 00:03:48;;;;;;;;;;;11.30;3.30;;;;;;5136169;27;19919;-70
2023/05/05 00:06:13;;;;;;;;;;;11.20;16.20;;;;;;5129882;27;19915;-70
2023/05/05 00:08:39;;;;;;;;;;;11.30;7.40;;;;;;5138438;27;19927;-70
2023/05/05 00:11:05;;;;;;;;;;;11.20;21.30;;;;;;5109214;27;19915;-70
2023/05/05 00:13:30;;;;;;;;;;;11.20;34.30;;;;;;5135542;27;19922;-70
2023/05/05 00:15:56;;;;;;;;;;;11.20;39.80;;;;;;5130101;27;19944;-70
2023/05/05 00:18:21;;;;;;;;;;;11.10;43.90;;;;;;5130782;27;19927;-69
2023/05/05 00:20:47;;;;;;;;;;;11.10;21.90;;;;;;5131522;27;19919;-70
2023/05/05 00:23:14;;;;;;;;;;;11.10;23.90;;;;;;5128615;27;20279;-70
2023/05/05 00:25:39;;;;;;;;;;;11.10;34.90;;;;;;5117248;27;19916;-70
2023/05/05 00:28:05;;;;;;;;;;;11.00;44.00;;;;;;5129251;27;19923;-70
2023/05/05 00:30:32;;;;;;;;;;;11.00;38.20;;;;;;5131094;27;19923;-70
2023/05/05 00:32:57;;;;;;;;;;;11.00;58.30;;;;;;5130599;27;19958;-70
2023/05/05 00:35:23;;;;;;;;;;;11.00;84.60;;;;;;5132423;27;19954;-70
2023/05/05 00:37:49;;;;;;;;;;;10.90;90.10;;;;;;5130863;27;19919;-70
2023/05/05 00:40:15;;;;;;;;;;;10.90;76.90;;;;;;5126074;27;19915;-70
2023/05/05 00:42:51;;;;;;;;;;;10.90;84.00;;;;;;5130722;27;19915;-70
2023/05/05 00:45:17;;;;;;;;;;;10.90;81.40;;;;;;5122282;27;20378;-70
2023/05/05 00:47:56;;;;;;;;;;;10.90;81.90;;;;;;5128364;27;20378;-70
2023/05/05 00:50:23;;;;;;;;;;;10.90;80.30;;;;;;5104214;28;20644;-70
2023/05/05 00:52:49;;;;;;;;;;;10.80;92.50;;;;;;5124283;27;19928;-70
2023/05/05 00:55:15;;;;;;;;;;;10.80;77.80;;;;;;5130083;27;19919;-70
2023/05/05 00:57:41;;;;;;;;;;;10.80;73.10;;;;;;5131548;27;19930;-70
2023/05/05 01:00:08;;;;;;;;;;;10.80;84.60;;;;;;5117008;27;19915;-70
2023/05/05 01:02:34;;;;;;;;;;;10.70;67.30;;;;;;5123141;28;19964;-70
2023/05/05 01:05:00;;;;;;;;;;;10.70;90.90;;;;;;5123291;27;19919;-70
2023/05/05 01:07:33;;;;;;;;;;;10.70;92.10;;;;;;5103238;28;20005;-70
2023/05/05 01:10:02;;;;;;;;;;;10.70;90.10;;;;;;5114535;27;19923;-70
2023/05/05 01:12:47;;;;;;;;;;;10.70;80.60;;;;;;5109060;28;19959;-70
2023/05/05 01:15:28;;;;;;;;;;;10.70;90.70;;;;;;5131093;27;19963;-70
2023/05/05 01:17:56;;;;;;;;;;;10.70;72.70;;;;;;5128608;27;19964;-71
2023/05/05 01:20:41;;;;;;;;;;;10.70;88.00;;;;;;5124708;27;20682;-71
2023/05/05 01:23:08;;;;;;;;;;;10.60;77.30;;;;;;5079422;27;20025;-71
2023/05/05 01:26:06;;;;;;;;;;;10.60;82.30;;;;;;5116047;27;19968;-71
2023/05/05 01:28:38;;;;;;;;;;;10.60;88.70;;;;;;5092803;27;20002;-71
2023/05/05 01:31:34;;;;;;;;;;;10.60;92.10;;;;;;5129990;27;20026;-71
2023/05/05 01:34:04;;;;;;;;;;;10.50;97.00;;;;;;5130193;27;20268;-71
2023/05/05 01:36:31;;;;;;;;;;;10.50;94.70;;;;;;5134039;27;19919;-71
2023/05/05 01:38:59;;;;;;;;;;;10.50;91.90;;;;;;5132467;27;20442;-71
2023/05/05 01:41:27;;;;;;;;;;;10.50;99.90;;;;;;5127108;27;19916;-71
2023/05/05 01:43:53;;;;;;;;;;;10.50;95.30;;;;;;5128070;27;20037;-71
2023/05/05 01:46:20;;;;;;;;;;;10.50;99.90;;;;;;5131827;27;19926;-71
2023/05/05 01:48:46;;;;;;;;;;;10.40;99.90;;;;;;5121726;27;20005;-71
2023/05/05 01:51:13;;;;;;;;;;;10.40;91.10;;;;;;5108541;27;20301;-71
2023/05/05 01:53:40;;;;;;;;;;;10.40;90.40;;;;;;5128254;27;20010;-71
2023/05/05 01:56:07;;;;;;;;;;;10.40;99.90;;;;;;5128676;27;19918;-71
2023/05/05 01:58:33;;;;;;;;;;;10.40;99.90;;;;;;5134076;27;19923;-71
2023/05/05 02:00:59;;;;;;;;;;;10.40;99.90;;;;;;5130751;27;19915;-71
2023/05/05 02:03:26;;;;;;;;;;;10.40;99.90;;;;;;5124676;27;20255;-71
2023/05/05 02:05:52;;;;;;;;;;;10.40;99.90;;;;;;5116133;27;19924;-71
2023/05/05 02:08:18;;;;;;;;;;;10.40;99.90;;;;;;5125360;27;19922;-71
2023/05/05 02:10:44;;;;;;;;;;;10.40;99.90;;;;;;5117273;27;19976;-71
2023/05/05 02:13:16;;;;;;;;;;;10.40;99.90;;;;;;5116765;27;19931;-71
2023/05/05 02:15:43;;;;;;;;;;;10.40;99.90;;;;;;5132869;27;19946;-71
2023/05/05 02:18:09;;;;;;;;;;;10.40;99.90;;;;;;5115454;27;20315;-71
2023/05/05 02:20:38;;;;;;;;;;;10.40;99.90;;;;;;5116368;27;19962;-71
2023/05/05 02:23:06;;;;;;;;;;;10.40;99.90;;;;;;5113566;27;19965;-71
2023/05/05 02:25:44;;;;;;;;;;;10.30;99.90;;;;;;5127843;27;20040;-71
2023/05/05 02:28:14;;;;;;;;;;;10.30;99.90;;;;;;5114984;27;19965;-71
2023/05/05 02:30:40;;;;;;;;;;;10.30;99.90;;;;;;5118359;27;19929;-71
2023/05/05 02:33:07;;;;;;;;;;;10.30;99.90;;;;;;5102494;27;19963;-71
2023/05/05 02:35:37;;;;;;;;;;;10.30;99.90;;;;;;5119988;27;19915;-71
2023/05/05 02:38:05;;;;;;;;;;;10.30;99.90;;;;;;5133271;27;19979;-71
2023/05/05 02:40:34;;;;;;;;;;;10.30;99.90;;;;;;5131269;27;20400;-71
2023/05/05 02:43:02;;;;;;;;;;;10.40;99.90;;;;;;5120298;27;19919;-71
2023/05/05 02:45:27;;;;;;;;;;;10.30;99.90;;;;;;5135578;27;19916;-71
2023/05/05 02:47:53;;;;;;;;;;;10.30;99.90;;;;;;5116663;27;20540;-71
2023/05/05 02:50:19;;;;;;;;;;;10.30;99.90;;;;;;5128446;27;19923;-71
2023/05/05 02:52:44;;;;;;;;;;;10.30;99.90;;;;;;5122713;27;19926;-71
2023/05/05 02:55:10;;;;;;;;;;;10.30;99.90;;;;;;5137310;27;19930;-71
2023/05/05 02:57:45;;;;;;;;;;;10.30;99.90;;;;;;5133056;27;19915;-71
2023/05/05 03:00:17;;;;;;;;;;;10.40;99.90;;;;;;5142736;27;19994;-71
2023/05/05 03:02:45;;;;;;;;;;;10.40;99.90;;;;;;5120429;27;19915;-71
2023/05/05 03:05:21;;;;;;;;;;;10.40;99.90;;;;;;5115462;27;19915;-71
2023/05/05 03:07:54;;;;;;;;;;;10.40;99.90;;;;;;5106646;27;20385;-71
2023/05/05 03:10:22;;;;;;;;;;;10.50;99.90;;;;;;5125138;27;20298;-71
2023/05/05 03:12:51;;;;;;;;;;;10.40;99.50;;;;;;5132180;27;19971;-71
2023/05/05 03:15:17;;;;;;;;;;;10.40;96.00;;;;;;5114582;27;20331;-71
2023/05/05 03:17:43;;;;;;;;;;;10.50;93.70;;;;;;5131886;27;19915;-71
2023/05/05 03:20:09;;;;;;;;;;;10.50;88.00;;;;;;5133611;27;19920;-71
2023/05/05 03:22:36;;;;;;;;;;;10.50;88.30;;;;;;5132137;27;19930;-71
2023/05/05 03:25:01;;;;;;;;;;;10.50;91.10;;;;;;5132295;27;20041;-71
2023/05/05 03:27:27;;;;;;;;;;;10.50;79.60;;;;;;5132057;27;20485;-71
2023/05/05 03:29:52;;;;;;;;;;;10.50;80.40;;;;;;5133922;27;19963;-71
2023/05/05 03:32:18;;;;;;;;;;;10.50;74.80;;;;;;5126623;27;20294;-71
2023/05/05 03:34:44;;;;;;;;;;;10.50;72.80;;;;;;5131940;27;19915;-71
2023/05/05 03:37:10;;;;;;;;;;;10.60;72.60;;;;;;5138286;27;19930;-71
2023/05/05 03:39:35;;;;;;;;;;;10.60;67.00;;;;;;5139297;27;19935;-71
2023/05/05 03:42:01;;;;;;;;;;;10.60;71.40;;;;;;5124806;27;19923;-71
2023/05/05 03:44:27;;;;;;;;;;;10.60;71.90;;;;;;5130010;27;20382;-71
2023/05/05 03:46:52;;;;;;;;;;;10.60;70.20;;;;;;5131503;27;19915;-71
2023/05/05 03:49:18;;;;;;;;;;;10.60;57.50;;;;;;5121025;27;20632;-71
2023/05/05 03:51:43;;;;;;;;;;;10.60;62.50;;;;;;5128858;27;19915;-71
2023/05/05 03:54:09;;;;;;;;;;;10.60;67.80;;;;;;5131576;27;19919;-71
2023/05/05 03:56:34;;;;;;;;;;;10.70;61.50;;;;;;5131182;27;20014;-71
2023/05/05 03:59:00;;;;;;;;;;;10.60;56.50;;;;;;5131471;27;19919;-71
2023/05/05 04:01:28;;;;;;;;;;;10.60;49.60;;;;;;5131533;27;19919;-72
2023/05/05 04:03:55;;;;;;;;;;;10.70;46.90;;;;;;5131309;27;20402;-71
2023/05/05 04:06:20;;;;;;;;;;;10.60;46.90;;;;;;5106171;27;19919;-71
2023/05/05 04:08:46;;;;;;;;;;;10.70;46.50;;;;;;5121548;27;19973;-71
2023/05/05 04:11:11;;;;;;;;;;;10.70;47.10;;;;;;5121208;27;20397;-71
2023/05/05 04:13:37;;;;;;;;;;;10.70;41.60;;;;;;5131144;27;20026;-71
2023/05/05 04:16:03;;;;;;;;;;;10.70;58.90;;;;;;5129587;27;19972;-71
2023/05/05 04:18:28;;;;;;;;;;;10.80;51.10;;;;;;5126190;27;19943;-71
2023/05/05 04:20:54;;;;;;;;;;;10.70;53.20;;;;;;5120051;27;19915;-71
2023/05/05 04:23:19;;;;;;;;;;;10.70;57.10;;;;;;5116229;27;20000;-71
2023/05/05 04:25:45;;;;;;;;;;;10.70;87.20;;;;;;5099775;27;19983;-71
2023/05/05 04:28:11;;;;;;;;;;;10.70;82.30;;;;;;5115849;27;19930;-71
2023/05/05 04:30:36;;;;;;;;;;;10.70;99.90;;;;;;5125103;27;19919;-71
2023/05/05 04:33:02;;;;;;;;;;;10.60;99.90;;;;;;5137188;27;20342;-71
2023/05/05 04:35:27;;;;;;;;;;;10.60;99.90;;;;;;5126982;27;19915;-71
2023/05/05 04:37:53;;;;;;;;;;;10.50;99.90;;;;;;5139775;27;19915;-71
2023/05/05 04:40:19;;;;;;;;;;;10.40;99.90;;;;;;5118178;27;20273;-71
2023/05/05 04:42:45;;;;;;;;;;;10.40;99.90;;;;;;5123838;27;19970;-71
2023/05/05 04:45:10;;;;;;;;;;;10.30;99.90;;;;;;5100529;27;20063;-71
2023/05/05 04:47:37;;;;;;;;;;;10.30;99.90;;;;;;5127344;27;20396;-71
2023/05/05 04:50:02;;;;;;;;;;;10.20;99.90;;;;;;5130051;27;19934;-71
2023/05/05 04:52:28;;;;;;;;;;;10.10;99.90;;;;;;5110678;27;19915;-71
2023/05/05 04:54:53;;;;;;;;;;;10.00;99.90;;;;;;5125859;27;19919;-71
2023/05/05 04:57:19;;;;;;;;;;;9.90;99.90;;;;;;5135791;27;19974;-71
2023/05/05 04:59:44;;;;;;;;;;;9.90;99.90;;;;;;5135325;27;19966;-71
2023/05/05 05:02:10;;;;;;;;;;;9.90;99.90;;;;;;5111632;27;19918;-71
2023/05/05 05:04:36;;;;;;;;;;;9.80;99.90;;;;;;5138267;27;20006;-74
2023/05/05 05:07:01;;;;;;;;;;;9.80;99.90;;;;;;5115267;28;20297;-73
2023/05/05 05:09:27;;;;;;;;;;;9.70;99.90;;;;;;5099122;27;19920;-72
2023/05/05 05:11:52;;;;;;;;;;;9.70;99.90;;;;;;5118628;27;19961;-72
2023/05/05 05:14:18;;;;;;;;;;;9.70;99.90;;;;;;5122111;27;19964;-72
2023/05/05 05:16:44;;;;;;;;;;;9.60;99.90;;;;;;5118049;27;19920;-72
2023/05/05 05:19:09;;;;;;;;;;;9.60;99.90;;;;;;5120009;27;19923;-72
2023/05/05 05:21:35;;;;;;;;;;;9.60;99.90;;;;;;5116571;27;19918;-72
2023/05/05 05:24:00;;;;;;;;;;;9.60;99.90;;;;;;5117548;27;19919;-72
2023/05/05 05:26:26;;;;;;;;;;;9.60;99.90;;;;;;5123509;27;19920;-72
2023/05/05 05:28:52;;;;;;;;;;;9.60;99.90;;;;;;5141784;27;19966;-72
2023/05/05 05:31:17;;;;;;;;;;;9.60;99.90;;;;;;5121415;27;19970;-72
2023/05/05 05:33:43;;;;;;;;;;;9.60;99.90;;;;;;5120972;27;20278;-72
2023/05/05 05:36:09;;;;;;;;;;;9.60;99.90;;;;;;5125577;27;19919;-72
2023/05/05 05:38:34;;;;;;;;;;;9.60;99.90;;;;;;5113425;28;19916;-73
2023/05/05 05:41:03;;;;;;;;;;;9.60;99.90;;;;;;5130642;27;19918;-73
2023/05/05 05:43:29;;;;;;;;;;;9.70;99.90;;;;;;5123213;28;20728;-73
2023/05/05 05:45:55;;;;;;;;;;;9.70;99.90;;;;;;5134820;27;20010;-73
2023/05/05 05:48:23;;;;;;;;;;;9.80;99.90;;;;;;5126882;28;20036;-72
2023/05/05 05:50:49;;;;;;;;;;;10.00;99.90;;;;;;5130183;27;19915;-72
2023/05/05 05:53:14;;;;;;;;;;;10.20;99.90;;;;;;5125925;27;20058;-72
2023/05/05 05:55:40;;;;;;;;;;;10.30;99.90;;;;;;5109811;27;19950;-72
2023/05/05 05:58:06;;;;;;;;;;;10.50;99.90;;;;;;5122956;28;19920;-72
2023/05/05 06:00:31;;;;;;;;;;;10.70;99.90;;;;;;5102236;28;19988;-72
2023/05/05 06:02:57;;;;;;;;;;;10.80;99.90;;;;;;5109993;28;19922;-72
2023/05/05 06:05:22;;;;;;;;;;;10.90;99.90;;;;;;5129604;27;19991;-72
2023/05/05 06:07:48;;;;;;;;;;;11.00;99.90;;;;;;5140490;27;20363;-72
2023/05/05 06:10:13;;;;;;;;;;;11.20;99.90;;;;;;5117951;27;19926;-72
2023/05/05 06:12:39;;;;;;;;;;;11.40;99.90;;;;;;5124000;27;19915;-73
2023/05/05 06:15:05;;;;;;;;;;;11.40;99.90;;;;;;5119294;27;19996;-73
2023/05/05 06:17:30;;;;;;;;;;;11.30;99.90;;;;;;5132304;27;19915;-72
2023/05/05 06:19:56;;;;;;;;;;;11.30;99.90;;;;;;5123554;27;19942;-72
2023/05/05 06:22:21;;;;;;;;;;;11.50;99.90;;;;;;5131561;27;19919;-72
2023/05/05 06:24:47;;;;;;;;;;;11.60;99.90;;;;;;5129779;27;19923;-72
2023/05/05 06:27:12;;;;;;;;;;;11.60;99.90;;;;;;5125919;27;20263;-72
2023/05/05 06:29:38;;;;;;;;;;;11.60;99.90;;;;;;5137426;27;19919;-71
2023/05/05 06:32:06;;;;;;;;;;;11.70;99.90;;;;;;5128400;27;19916;-71
2023/05/05 06:34:32;;;;;;;;;;;11.60;99.90;;;;;;5134102;27;19944;-71
2023/05/05 06:36:57;;;;;;;;;;;11.50;99.90;;;;;;5129590;27;19927;-71
2023/05/05 06:39:23;;;;;;;;;;;11.50;99.90;;;;;;5123158;27;19926;-71
2023/05/05 06:41:48;;;;;;;;;;;11.50;99.90;;;;;;5107727;27;19923;-71
2023/05/05 06:44:14;;;;;;;;;;;11.50;99.90;;;;;;5128473;27;19968;-71
2023/05/05 06:46:41;;;;;;;;;;;11.60;99.90;;;;;;5132498;27;19923;-71
2023/05/05 06:49:06;;;;;;;;;;;11.50;99.90;;;;;;5131078;27;20287;-71
2023/05/05 06:51:32;;;;;;;;;;;11.50;99.90;;;;;;5131542;27;19926;-72
2023/05/05 06:53:57;;;;;;;;;;;11.50;99.90;;;;;;5128256;27;19978;-72
2023/05/05 06:56:23;;;;;;;;;;;11.50;99.90;;;;;;5131529;27;19919;-71
2023/05/05 06:58:49;;;;;;;;;;;11.60;99.90;;;;;;5108499;27;20018;-73
2023/05/05 07:01:14;;;;;;;;;;;11.90;99.90;;;;;;5109378;27;19975;-72
2023/05/05 07:03:40;;;;;;;;;;;12.10;99.90;;;;;;5126826;27;19920;-72
2023/05/05 07:06:06;;;;;;;;;;;12.20;99.90;;;;;;5106137;27;20303;-74
2023/05/05 07:08:31;;;;;;;;;;;12.30;99.90;;;;;;5097238;27;19919;-71
2023/05/05 07:10:59;;;;;;;;;;;12.50;99.90;;;;;;5132082;27;19923;-71
2023/05/05 07:13:25;;;;;;;;;;;12.60;99.90;;;;;;5123971;27;19915;-71
2023/05/05 07:15:51;;;;;;;;;;;12.70;99.90;;;;;;5137028;27;20937;-71
2023/05/05 07:18:16;;;;;;;;;;;12.90;99.90;;;;;;5129867;27;19920;-71
2023/05/05 07:20:45;;;;;;;;;;;13.20;99.90;;;;;;5139922;27;19926;-71
2023/05/05 07:23:10;;;;;;;;;;;13.40;99.90;;;;;;5132829;27;19915;-71
2023/05/05 07:25:36;;;;;;;;;;;13.70;99.90;;;;;;5113176;27;19995;-71
2023/05/05 07:28:02;;;;;;;;;;;14.10;99.90;;;;;;5132515;27;19919;-71
2023/05/05 07:30:28;;;;;;;;;;;14.60;99.90;;;;;;5128512;27;19923;-72
2023/05/05 07:32:53;;;;;;;;;;;14.90;97.60;;;;;;5121193;27;20067;-72
2023/05/05 07:35:19;;;;;;;;;;;15.30;63.80;;;;;;5140930;27;19915;-72
2023/05/05 07:37:45;;;;;;;;;;;15.40;1.00;;;;;;5134148;27;19979;-72
2023/05/05 07:40:11;;;;;;;;;;;15.70;1.00;;;;;;5127795;27;20001;-72
2023/05/05 07:42:36;;;;;;;;;;;15.70;1.00;;;;;;5125166;27;19926;-72
2023/05/05 07:45:02;;;;;;;;;;;15.70;1.00;;;;;;5119746;27;20349;-72
2023/05/05 07:47:28;;;;;;;;;;;16.00;1.00;;;;;;5138331;27;19989;-71
2023/05/05 07:49:53;;;;;;;;;;;15.90;99.90;;;;;;5117745;27;19922;-71
2023/05/05 07:52:19;;;;;;;;;;;16.00;1.00;;;;;;5131043;27;19919;-71
2023/05/05 07:54:46;;;;;;;;;;;16.00;1.00;;;;;;5094915;27;20011;-71
2023/05/05 07:57:12;;;;;;;;;;;16.20;1.00;;;;;;5120853;27;19950;-73
2023/05/05 07:59:39;;;;;;;;;;;16.30;1.00;;;;;;5125223;27;19935;-73
2023/05/05 08:02:05;;;;;;;;;;;16.30;1.00;;;;;;5130214;27;19957;-72
2023/05/05 08:04:31;;;;;;;;;;;16.50;1.00;;;;;;5125820;27;20362;-72
2023/05/05 08:06:57;;;;;;;;;;;16.60;1.00;;;;;;5138660;27;19972;-72
2023/05/05 08:09:22;;;;;;;;;;;16.40;1.00;;;;;;5128981;27;19934;-72
2023/05/05 08:11:48;;;;;;;;;;;16.10;1.00;;;;;;5106054;28;19915;-72
2023/05/05 08:14:14;;;;;;;;;;;16.20;1.00;;;;;;5102958;27;19968;-72
2023/05/05 08:16:39;;;;;;;;;;;16.40;1.00;;;;;;5140004;27;20382;-72
2023/05/05 08:19:05;;;;;;;;;;;16.80;1.00;;;;;;5134027;27;19922;-72
2023/05/05 08:21:31;;;;;;;;;;;17.00;1.00;;;;;;5128306;27;20359;-73
2023/05/05 08:23:56;;;;;;;;;;;17.00;99.90;;;;;;5131272;27;19930;-71
2023/05/05 08:26:22;;;;;;;;;;;17.10;99.90;;;;;;5124971;27;20466;-73
2023/05/05 08:28:48;;;;;;;;;;;17.10;99.90;;;;;;5121402;27;19946;-73
2023/05/05 08:31:14;;;;;;;;;;;17.30;99.90;;;;;;5122968;27;19926;-73
2023/05/05 08:33:40;;;;;;;;;;;17.30;99.90;;;;;;5100096;28;19920;-72
2023/05/05 08:36:05;;;;;;;;;;;17.40;99.90;;;;;;5111769;27;19926;-72
2023/05/05 08:38:31;;;;;;;;;;;17.50;99.90;;;;;;5114383;27;19968;-72
2023/05/05 08:40:57;;;;;;;;;;;17.40;99.90;;;;;;5124571;27;19994;-71
2023/05/05 08:43:23;;;;;;;;;;;17.60;99.90;;;;;;5124586;27;19920;-71
2023/05/05 08:45:50;;;;;;;;;;;17.80;99.90;;;;;;5131586;27;19915;-71
2023/05/05 08:48:17;;;;;;;;;;;17.90;99.90;;;;;;5125773;27;20002;-71
2023/05/05 08:50:45;;;;;;;;;;;17.90;99.90;;;;;;5114636;27;20014;-71
2023/05/05 08:53:15;;;;;;;;;;;18.20;99.90;;;;;;5120018;27;19954;-71
2023/05/05 08:55:44;;;;;;;;;;;18.30;99.90;;;;;;5118550;27;20370;-71
2023/05/05 08:58:10;;;;;;;;;;;18.40;99.90;;;;;;5097628;28;19959;-71
2023/05/05 09:00:36;;;;;;;;;;;18.50;99.90;;;;;;5119031;27;19926;-71
2023/05/05 09:03:01;;;;;;;;;;;18.50;99.90;;;;;;5122884;27;19923;-71
2023/05/05 09:05:27;;;;;;;;;;;18.50;99.90;;;;;;5112543;28;19919;-71
2023/05/05 09:07:53;;;;;;;;;;;18.50;99.90;;;;;;5116201;27;19987;-71
2023/05/05 09:10:19;;;;;;;;;;;18.70;99.90;;;;;;5116291;27;19920;-71
2023/05/05 09:12:44;;;;;;;;;;;18.80;99.90;;;;;;5112282;27;19916;-71
2023/05/05 09:15:13;;;;;;;;;;;19.00;99.90;;;;;;5116161;27;19930;-71
2023/05/05 09:17:39;;;;;;;;;;;19.20;99.90;;;;;;5111233;27;19920;-71
2023/05/05 09:20:06;;;;;;;;;;;19.50;99.90;;;;;;5120084;28;19922;-70
2023/05/05 09:22:32;;;;;;;;;;;19.70;99.90;;;;;;5111948;28;19934;-71
2023/05/05 09:24:57;;;;;;;;;;;19.80;99.90;;;;;;5126398;27;19923;-71
2023/05/05 09:27:23;;;;;;;;;;;19.90;99.90;;;;;;5123079;27;19915;-71
2023/05/05 09:29:49;;;;;;;;;;;19.60;99.90;;;;;;5117748;27;19942;-71
2023/05/05 09:32:16;;;;;;;;;;;19.70;99.90;;;;;;5122970;27;19915;-71
2023/05/05 09:34:41;;;;;;;;;;;19.80;99.90;;;;;;5113579;28;19919;-71
2023/05/05 09:37:07;;;;;;;;;;;20.10;99.90;;;;;;5095439;28;19968;-71
2023/05/05 09:39:32;;;;;;;;;;;20.40;99.90;;;;;;5120999;27;19934;-71
2023/05/05 09:41:58;;;;;;;;;;;20.50;88.10;;;;;;5104770;28;19964;-72
2023/05/05 09:44:34;;;;;;;;;;;20.40;91.00;;;;;;5135720;27;20680;-71
2023/05/05 09:46:59;;;;;;;;;;;20.40;99.90;;;;;;5130051;27;19915;-72
2023/05/05 09:49:25;;;;;;;;;;;20.20;88.90;;;;;;5132448;27;19919;-71
2023/05/05 09:51:52;;;;;;;;;;;19.90;92.90;;;;;;5119413;27;20009;-71
2023/05/05 09:54:25;;;;;;;;;;;19.50;99.90;;;;;;5116627;27;19923;-71
2023/05/05 09:56:51;;;;;;;;;;;19.10;99.90;;;;;;5130453;27;20358;-72
2023/05/05 09:59:17;;;;;;;;;;;18.90;99.90;;;;;;5121887;27;20416;-71
2023/05/05 10:01:43;;;;;;;;;;;18.80;99.90;;;;;;5133233;27;19919;-71
2023/05/05 10:04:21;;;;;;;;;;;18.90;99.90;;;;;;5133401;27;19915;-71
2023/05/05 10:06:47;;;;;;;;;;;19.50;99.90;;;;;;5118676;27;19919;-71
2023/05/05 10:09:13;;;;;;;;;;;20.00;99.90;;;;;;5127837;27;19930;-72
2023/05/05 10:11:40;;;;;;;;;;;20.40;99.90;;;;;;5108942;27;19915;-71
2023/05/05 10:14:06;;;;;;;;;;;20.50;99.90;;;;;;5115793;27;19919;-71
2023/05/05 10:16:32;;;;;;;;;;;20.70;99.90;;;;;;5116298;27;19922;-72
2023/05/05 10:19:00;;;;;;;;;;;20.90;99.90;;;;;;5133141;27;19930;-72
2023/05/05 10:21:26;;;;;;;;;;;21.20;99.90;;;;;;5123755;27;19922;-71
2023/05/05 10:24:12;;;;;;;;;;;21.70;99.90;;;;;;5128151;27;19929;-71
2023/05/05 10:26:40;;;;;;;;;;;21.60;90.80;;;;;;5132068;27;20007;-71
2023/05/05 10:29:15;;;;;;;;;;;21.40;77.50;;;;;;5134164;27;19923;-71
2023/05/05 10:31:44;;;;;;;;;;;20.90;99.90;;;;;;5133005;27;19967;-72
2023/05/05 10:34:16;;;;;;;;;;;20.80;99.90;;;;;;5131054;27;19966;-72
2023/05/05 10:36:43;;;;;;;;;;;20.90;99.90;;;;;;5129157;27;20357;-72
2023/05/05 10:39:09;;;;;;;;;;;20.90;99.90;;;;;;5131745;27;19919;-72
2023/05/05 10:41:35;;;;;;;;;;;20.60;99.90;;;;;;5115944;27;19916;-71
2023/05/05 10:44:01;;;;;;;;;;;20.60;99.90;;;;;;5122050;27;19942;-72
2023/05/05 10:46:27;;;;;;;;;;;20.70;99.90;;;;;;5131674;27;20363;-72
2023/05/05 10:49:11;;;;;;;;;;;20.70;99.90;;;;;;5119394;27;19919;-72
2023/05/05 10:52:00;;;;;;;;;;;20.70;99.90;;;;;;5132314;27;19922;-72
2023/05/05 10:54:33;;;;;;;;;;;20.50;99.90;;;;;;5133750;27;20337;-72
2023/05/05 10:57:03;;;;;;;;;;;20.20;99.90;;;;;;5118080;27;19942;-72
2023/05/05 10:59:38;;;;;;;;;;;20.10;99.90;;;;;;5104556;28;20015;-72
2023/05/05 11:02:20;;;;;;;;;;;20.30;99.90;;;;;;5125676;27;19919;-72
2023/05/05 11:05:04;;;;;;;;;;;20.50;99.90;;;;;;5094508;28;19916;-72
2023/05/05 11:07:30;;;;;;;;;;;20.80;99.90;;;;;;5118059;27;20014;-71
2023/05/05 11:09:57;;;;;;;;;;;20.60;99.90;;;;;;5132202;27;20021;-72
2023/05/05 11:12:22;;;;;;;;;;;21.10;99.90;;;;;;5117617;27;19926;-72
2023/05/05 11:15:08;;;;;;;;;;;21.50;99.90;;;;;;5131875;27;19915;-72
2023/05/05 11:17:44;;;;;;;;;;;21.70;99.90;;;;;;5094777;28;19926;-72
2023/05/05 11:20:09;;;;;;;;;;;21.60;99.90;;;;;;5124695;27;19915;-71
2023/05/05 11:22:55;;;;;;;;;;;21.70;99.90;;;;;;5117376;27;19919;-71
2023/05/05 11:25:44;;;;;;;;;;;21.60;69.30;;;;;;5131710;27;20070;-72
2023/05/05 11:28:10;;;;;;;;;;;21.70;98.30;;;;;;5094188;28;19915;-72
2023/05/05 11:30:55;;;;;;;;;;;21.60;77.60;;;;;;5126354;27;19931;-72
2023/05/05 11:33:29;;;;;;;;;;;21.50;92.40;;;;;;5131704;27;19915;-71
2023/05/05 11:35:55;;;;;;;;;;;21.70;74.50;;;;;;5131423;27;19964;-71
2023/05/05 11:38:25;;;;;;;;;;;21.60;68.00;;;;;;5114517;27;19968;-71
2023/05/05 11:40:52;;;;;;;;;;;21.20;67.90;;;;;;5131616;27;19920;-71
2023/05/05 11:43:17;;;;;;;;;;;21.20;96.30;;;;;;5131464;27;19915;-71
2023/05/05 11:45:43;;;;;;;;;;;21.30;99.90;;;;;;5131621;27;19926;-71
2023/05/05 11:48:25;;;;;;;;;;;21.20;99.90;;;;;;5130589;27;20354;-71
2023/05/05 11:50:52;;;;;;;;;;;21.10;99.90;;;;;;5103587;27;19980;-71
2023/05/05 11:53:18;;;;;;;;;;;20.90;99.90;;;;;;5131507;27;19915;-71
2023/05/05 11:55:43;;;;;;;;;;;20.80;99.90;;;;;;5130976;27;20394;-71
2023/05/05 11:58:18;;;;;;;;;;;20.50;99.90;;;;;;5117136;27;20433;-71
2023/05/05 12:00:44;;;;;;;;;;;20.30;99.90;;;;;;5131037;27;20007;-71
2023/05/05 12:03:10;;;;;;;;;;;20.20;99.90;;;;;;5130953;27;19965;-71
2023/05/05 12:05:35;;;;;;;;;;;20.50;99.90;;;;;;5111906;27;19916;-71
2023/05/05 12:08:01;;;;;;;;;;;20.50;99.90;;;;;;5110867;28;19955;-71
2023/05/05 12:10:27;;;;;;;;;;;20.40;99.90;;;;;;5124618;27;20404;-71
2023/05/05 12:12:52;;;;;;;;;;;20.40;99.90;;;;;;5092741;28;20389;-71
2023/05/05 12:15:26;;;;;;;;;;;20.60;99.90;;;;;;5124809;27;19919;-71
2023/05/05 12:17:52;;;;;;;;;;;20.60;99.90;;;;;;5098849;27;19925;-72
2023/05/05 12:20:27;;;;;;;;;;;20.50;99.90;;;;;;5106048;27;19919;-72
2023/05/05 12:22:58;;;;;;;;;;;20.20;99.90;;;;;;5121184;27;19969;-72
2023/05/05 12:25:23;;;;;;;;;;;20.20;99.90;;;;;;5130895;27;19926;-72
2023/05/05 12:27:52;;;;;;;;;;;20.20;99.90;;;;;;5122449;27;20005;-72
2023/05/05 12:30:18;;;;;;;;;;;20.10;99.90;;;;;;5136991;27;19984;-72
2023/05/05 12:32:44;;;;;;;;;;;20.00;99.90;;;;;;5088231;28;20359;-72
2023/05/05 12:35:10;;;;;;;;;;;20.20;99.90;;;;;;5124706;27;19919;-72
2023/05/05 12:37:36;;;;;;;;;;;20.20;99.90;;;;;;5125321;27;19914;-71
2023/05/05 12:40:02;;;;;;;;;;;20.50;99.90;;;;;;5125022;27;19920;-71
2023/05/05 12:42:28;;;;;;;;;;;20.60;99.90;;;;;;5112880;27;20616;-71
2023/05/05 12:44:53;;;;;;;;;;;20.40;99.90;;;;;;5119396;27;19988;-71
2023/05/05 12:47:30;;;;;;;;;;;20.30;99.90;;;;;;5116195;27;19998;-71
2023/05/05 12:49:55;;;;;;;;;;;20.00;99.90;;;;;;5117787;27;19924;-71
2023/05/05 12:52:21;;;;;;;;;;;20.00;99.90;;;;;;5126490;27;20009;-71
2023/05/05 12:54:54;;;;;;;;;;;20.00;99.90;;;;;;5106821;27;19923;-72
2023/05/05 12:57:19;;;;;;;;;;;19.80;99.90;;;;;;5103299;28;19916;-72
2023/05/05 12:59:45;;;;;;;;;;;19.60;99.90;;;;;;5121935;27;20348;-72
2023/05/05 13:02:10;;;;;;;;;;;19.40;99.90;;;;;;5119541;27;19919;-73
2023/05/05 13:04:46;;;;;;;;;;;19.20;99.90;;;;;;5129540;27;20005;-72
2023/05/05 13:07:13;;;;;;;;;;;19.30;99.90;;;;;;5120266;27;19919;-73
2023/05/05 13:09:38;;;;;;;;;;;19.20;99.90;;;;;;5117287;28;19946;-73
2023/05/05 13:12:05;;;;;;;;;;;19.00;99.90;;;;;;5104109;28;20386;-74
2023/05/05 13:14:31;;;;;;;;;;;18.70;99.90;;;;;;5121578;27;20365;-74
2023/05/05 13:16:57;;;;;;;;;;;18.60;99.90;;;;;;5128651;27;19920;-73
2023/05/05 13:19:23;;;;;;;;;;;18.60;99.90;;;;;;5135673;27;19937;-74
2023/05/05 13:21:53;;;;;;;;;;;18.40;99.90;;;;;;5133201;27;19919;-73
2023/05/05 13:24:18;;;;;;;;;;;18.20;1.00;;;;;;5108261;27;19964;-73
2023/05/05 13:26:44;;;;;;;;;;;17.80;1.00;;;;;;5129744;27;19923;-73
2023/05/05 13:29:10;;;;;;;;;;;17.70;54.60;;;;;;5122631;27;20386;-72
2023/05/05 13:31:35;;;;;;;;;;;17.60;95.90;;;;;;5105022;27;19973;-74
2023/05/05 13:34:01;;;;;;;;;;;17.40;99.90;;;;;;5125968;27;19930;-74
2023/05/05 13:36:27;;;;;;;;;;;17.10;99.90;;;;;;5126686;27;19919;-74
2023/05/05 13:38:52;;;;;;;;;;;17.00;99.90;;;;;;5129439;27;20045;-74
2023/05/05 13:41:18;;;;;;;;;;;16.70;99.90;;;;;;5113624;27;19926;-74
2023/05/05 13:43:43;;;;;;;;;;;16.50;99.90;;;;;;5120868;27;19927;-74
2023/05/05 13:46:11;;;;;;;;;;;16.30;99.90;;;;;;5121143;27;20025;-74
2023/05/05 13:48:38;;;;;;;;;;;16.10;99.90;;;;;;5100818;27;19915;-74
2023/05/05 13:51:03;;;;;;;;;;;15.90;99.90;;;;;;5110028;27;19968;-74
2023/05/05 13:53:29;;;;;;;;;;;15.70;99.90;;;;;;5133259;27;19923;-74
2023/05/05 13:55:55;;;;;;;;;;;15.50;99.90;;;;;;5130605;27;19937;-73
2023/05/05 13:58:21;;;;;;;;;;;15.40;99.90;;;;;;5127641;27;20352;-73
2023/05/05 14:00:47;;;;;;;;;;;15.20;99.90;;;;;;5127742;27;19923;-73
2023/05/05 14:03:12;;;;;;;;;;;15.10;99.90;;;;;;5141944;27;19919;-73
2023/05/05 14:05:41;;;;;;;;;;;14.90;99.90;;;;;;5104366;27;20373;-73
2023/05/05 14:08:10;;;;;;;;;;;14.80;99.90;;;;;;5125096;27;19919;-73
2023/05/05 14:10:35;;;;;;;;;;;14.80;99.90;;;;;;5137330;27;20431;-73
2023/05/05 14:13:02;;;;;;;;;;;14.80;99.90;;;;;;5139002;27;19923;-73
2023/05/05 14:15:28;;;;;;;;;;;14.70;99.90;;;;;;5142934;27;19925;-73
2023/05/05 14:17:53;;;;;;;;;;;14.50;99.90;;;;;;5125963;27;19931;-73
2023/05/05 14:20:19;;;;;;;;;;;14.40;99.90;;;;;;5137796;27;19923;-73